Indianopolis, Brazil
Current Conditions -  °F | °C
As of 11:00 AM on Friday 28 Nov 2014 (Local Time) from SBUL Reporting Station
Overcast Overcast  
Wind Chill: 70°   Ceiling: 500
Heat Index: 70°   Visibility: 6mi
Dew Point: 68°   Wind: 7mph
Humidity: 94%   Direction: 330°NNW
Pressure: 30.09"   Gusts: NA
Location:  19.04°S, 47.92°W
Report Text: SBUL 281300Z 33006KT 9999 SCT002 BKN005 OVC100 21/20 Q1019
Loading
Personal Weather Stations






























Interactive Weather Map New forecast layout! Learn more

10-Day Weather Forecast

Advertisements
Track Severe Weather on mobile